Little Rock, Arkansas
Current Conditions -  °F | °C
As of 5:53 PM on Saturday 20 Dec 2014 (Local Time) from KLIT Reporting Station
Few Clouds Few Clouds  
Wind Chill: 44°   Ceiling: Unl
Heat Index: 44°   Visibility: 10mi
Dew Point: 35°   Wind: 3mph
Humidity: 71%   Direction: 120°ESE
Pressure: 30.23"   Gusts: NA
Location:  34.75°N, 92.27°W
Report Text: KLIT 202353Z 12003KT 10SM FEW050 07/02 A3023 RMK AO2 SLP241 T00670017 10100 20067 51006
Loading
Personal Weather Stations






























Interactive Weather Map New forecast layout! Learn more

10-Day Weather Forecast

Advertisements
Track Severe Weather on mobile